Time;durP1;ratioP1;P1;durP2;ratioP2;P2;SDS_P1;SDS_P2;PMS_P1;PMS_P2;Temp;Humidity;BMP_temperature;BMP_pressure;BME280_temperature;BME280_humidity;BME280_pressure;Samples;Min_cycle;Max_cycle;Signal;HPM_P1;HPM_P2
2023/07/29 00:02:22;;;;;;;4.68;2.45;;;20.00;99.90;;;;;;5050423;28;20448;-80
2023/07/29 00:04:48;;;;;;;7.38;2.50;;;20.00;99.90;;;;;;5051632;28;20040;-78
2023/07/29 00:07:13;;;;;;;2.95;2.15;;;20.00;99.90;;;;;;5051240;28;20455;-78
2023/07/29 00:09:39;;;;;;;4.28;2.25;;;20.00;99.90;;;;;;5051527;28;20540;-80
2023/07/29 00:12:05;;;;;;;5.32;2.83;;;20.10;99.90;;;;;;5051442;28;20124;-79
2023/07/29 00:14:30;;;;;;;7.90;2.58;;;20.10;99.90;;;;;;5051500;28;20060;-78
2023/07/29 00:16:56;;;;;;;4.25;2.25;;;20.10;99.90;;;;;;5051647;28;20040;-80
2023/07/29 00:19:23;;;;;;;7.85;2.70;;;20.10;99.90;;;;;;5051266;28;20033;-80
2023/07/29 00:21:49;;;;;;;4.82;2.75;;;20.10;99.90;;;;;;5051325;28;20481;-80
2023/07/29 00:24:14;;;;;;;4.50;2.10;;;20.10;99.90;;;;;;5050012;28;20120;-80
2023/07/29 00:26:40;;;;;;;4.88;3.05;;;20.10;99.90;;;;;;5049642;28;20033;-78
2023/07/29 00:29:06;;;;;;;3.10;1.90;;;20.00;99.90;;;;;;5051117;28;20071;-80
2023/07/29 00:31:31;;;;;;;5.72;2.25;;;20.00;99.90;;;;;;5049975;28;20481;-80
2023/07/29 00:33:58;;;;;;;3.47;2.42;;;20.10;99.90;;;;;;5049640;28;20574;-80
2023/07/29 00:36:23;;;;;;;3.72;2.15;;;20.10;99.90;;;;;;5051223;28;20032;-79
2023/07/29 00:38:49;;;;;;;6.50;2.38;;;20.00;99.90;;;;;;5050746;28;20029;-79
2023/07/29 00:41:15;;;;;;;3.88;2.42;;;20.00;99.90;;;;;;5050927;28;20033;-80
2023/07/29 00:43:41;;;;;;;4.18;2.75;;;20.00;99.90;;;;;;5051064;28;20632;-80
2023/07/29 00:46:09;;;;;;;8.88;2.25;;;20.00;99.90;;;;;;5049659;28;20033;-80
2023/07/29 00:48:35;;;;;;;4.57;2.20;;;20.00;99.90;;;;;;5049529;28;20203;-79
2023/07/29 00:51:01;;;;;;;6.03;2.58;;;20.00;99.90;;;;;;5050898;28;20633;-80
2023/07/29 00:53:26;;;;;;;5.15;2.00;;;19.90;99.90;;;;;;5049008;28;20037;-79
2023/07/29 00:55:52;;;;;;;5.55;2.25;;;19.90;99.90;;;;;;5049433;28;20029;-80
2023/07/29 00:58:19;;;;;;;4.40;1.98;;;19.90;99.90;;;;;;5050642;28;20040;-80
2023/07/29 01:00:44;;;;;;;4.90;2.45;;;19.80;99.90;;;;;;5048907;28;20032;-80
2023/07/29 01:03:11;;;;;;;4.13;1.80;;;19.80;99.90;;;;;;5050562;28;20036;-80
2023/07/29 01:05:49;;;;;;;4.85;1.90;;;19.80;99.90;;;;;;5049239;28;20031;-80
2023/07/29 01:08:32;;;;;;;3.17;1.63;;;19.80;99.90;;;;;;5049185;28;20067;-80
2023/07/29 01:11:14;;;;;;;3.00;1.98;;;19.80;99.90;;;;;;5050423;28;20025;-80
2023/07/29 01:13:48;;;;;;;3.97;1.90;;;19.80;99.90;;;;;;5048863;28;20151;-79
2023/07/29 01:16:20;;;;;;;3.53;1.67;;;19.80;99.90;;;;;;5050441;28;20031;-80
2023/07/29 01:18:48;;;;;;;3.50;1.52;;;19.80;99.90;;;;;;5048451;28;20029;-81
2023/07/29 01:21:15;;;;;;;4.95;1.83;;;19.80;99.90;;;;;;5048884;28;20025;-80
2023/07/29 01:23:41;;;;;;;3.88;1.63;;;19.80;99.90;;;;;;5050199;28;20032;-80
2023/07/29 01:26:06;;;;;;;3.25;1.80;;;19.80;99.90;;;;;;5050308;28;20025;-80
2023/07/29 01:28:32;;;;;;;2.80;1.45;;;19.80;99.90;;;;;;5050069;28;20485;-80
2023/07/29 01:31:07;;;;;;;4.90;2.00;;;19.90;99.90;;;;;;5050034;28;20122;-80
2023/07/29 01:33:44;;;;;;;4.95;2.15;;;19.90;99.90;;;;;;5048763;28;20386;-80
2023/07/29 01:36:18;;;;;;;2.70;1.60;;;19.80;99.90;;;;;;5048741;28;20021;-80
2023/07/29 01:38:45;;;;;;;4.75;1.83;;;19.90;99.90;;;;;;5049897;28;20033;-80
2023/07/29 01:41:11;;;;;;;6.10;2.00;;;19.90;99.90;;;;;;5049782;28;20057;-79
2023/07/29 01:43:43;;;;;;;3.85;1.70;;;19.90;99.90;;;;;;5049846;28;20060;-80
2023/07/29 01:46:13;;;;;;;3.05;1.60;;;19.90;99.90;;;;;;5048407;28;20028;-80
2023/07/29 01:48:39;;;;;;;2.78;1.75;;;19.90;99.90;;;;;;5049623;28;20024;-81
2023/07/29 01:51:05;;;;;;;2.85;1.67;;;19.90;99.90;;;;;;5048332;28;20118;-80
2023/07/29 01:53:31;;;;;;;3.33;1.85;;;19.90;99.90;;;;;;5048195;28;20025;-80
2023/07/29 01:55:57;;;;;;;3.95;1.80;;;19.90;99.90;;;;;;5049481;28;20025;-79
2023/07/29 01:58:23;;;;;;;2.92;1.65;;;19.90;99.90;;;;;;5048612;28;20025;-80
2023/07/29 02:00:48;;;;;;;2.50;1.35;;;19.90;99.90;;;;;;5049512;28;20471;-80
2023/07/29 02:03:14;;;;;;;2.00;1.40;;;19.90;99.90;;;;;;5048188;28;20124;-79
2023/07/29 02:05:41;;;;;;;3.58;1.52;;;19.90;99.90;;;;;;5048145;28;20039;-79
2023/07/29 02:08:07;;;;;;;2.45;1.80;;;20.00;99.90;;;;;;5049593;28;20032;-80
2023/07/29 02:10:32;;;;;;;5.05;1.45;;;19.90;99.90;;;;;;5049287;28;20028;-80
2023/07/29 02:12:58;;;;;;;6.43;1.50;;;20.00;99.90;;;;;;5049273;28;20052;-80
2023/07/29 02:15:24;;;;;;;3.78;1.70;;;19.90;99.90;;;;;;5049220;28;20033;-80
2023/07/29 02:17:50;;;;;;;3.88;1.55;;;19.90;99.90;;;;;;5049153;28;20355;-81
2023/07/29 02:20:16;;;;;;;3.72;2.20;;;19.90;99.90;;;;;;5049453;28;20047;-81
2023/07/29 02:22:41;;;;;;;1.95;1.30;;;19.90;99.90;;;;;;5048121;28;20033;-79
2023/07/29 02:25:07;;;;;;;5.13;1.67;;;19.80;99.90;;;;;;5049547;28;20029;-80
2023/07/29 02:27:33;;;;;;;5.55;1.90;;;19.80;99.90;;;;;;5048019;28;20400;-81
2023/07/29 02:29:59;;;;;;;2.75;1.52;;;19.80;99.90;;;;;;5052576;28;20055;-79
2023/07/29 02:32:25;;;;;;;4.22;1.95;;;19.70;99.90;;;;;;5054725;28;20081;-78
2023/07/29 02:34:50;;;;;;;2.50;1.80;;;19.70;99.90;;;;;;5053025;28;20033;-79
2023/07/29 02:37:16;;;;;;;2.88;1.70;;;19.60;99.90;;;;;;5051967;28;20028;-79
2023/07/29 02:39:42;;;;;;;6.45;1.90;;;19.60;99.90;;;;;;5051914;28;20025;-81
2023/07/29 02:42:08;;;;;;;6.07;1.55;;;19.50;99.90;;;;;;5053296;28;20489;-80
2023/07/29 02:44:34;;;;;;;4.22;1.55;;;19.50;99.90;;;;;;5053149;28;20044;-78
2023/07/29 02:46:59;;;;;;;2.75;1.83;;;19.40;99.90;;;;;;5053129;28;20040;-79
2023/07/29 02:49:25;;;;;;;3.75;1.70;;;19.40;99.90;;;;;;5051616;28;20036;-79
2023/07/29 02:51:51;;;;;;;3.35;1.50;;;19.30;99.90;;;;;;5051716;28;20048;-78
2023/07/29 02:54:16;;;;;;;2.80;1.67;;;19.20;99.90;;;;;;5051587;28;20037;-80
2023/07/29 02:56:42;;;;;;;3.25;2.45;;;19.10;99.90;;;;;;5052942;28;20033;-80
2023/07/29 02:59:08;;;;;;;7.38;2.17;;;19.00;99.90;;;;;;5052810;28;20086;-80
2023/07/29 03:01:33;;;;;;;7.57;2.00;;;19.00;99.90;;;;;;5053100;28;20029;-79
2023/07/29 03:03:59;;;;;;;2.85;1.70;;;18.90;99.90;;;;;;5051452;28;20521;-80
2023/07/29 03:06:24;;;;;;;5.57;2.22;;;18.90;99.90;;;;;;5052844;28;20029;-81
2023/07/29 03:08:50;;;;;;;3.08;1.83;;;18.80;99.90;;;;;;5051348;28;20493;-80
2023/07/29 03:11:16;;;;;;;5.60;2.03;;;18.70;99.90;;;;;;5051427;28;20071;-81
2023/07/29 03:13:42;;;;;;;3.67;1.90;;;18.70;99.90;;;;;;5052354;28;20072;-81
2023/07/29 03:16:16;;;;;;;7.03;2.10;;;18.70;99.90;;;;;;5052455;28;20037;-80
2023/07/29 03:18:43;;;;;;;2.67;1.60;;;18.70;99.90;;;;;;5052471;28;20021;-79
2023/07/29 03:21:10;;;;;;;4.15;1.60;;;18.60;99.90;;;;;;5051138;28;20152;-80
2023/07/29 03:23:36;;;;;;;4.78;2.08;;;18.50;99.90;;;;;;5052462;28;20017;-80
2023/07/29 03:26:09;;;;;;;3.97;1.60;;;18.50;99.90;;;;;;5052364;28;20021;-81
2023/07/29 03:28:37;;;;;;;4.60;1.85;;;18.50;99.90;;;;;;5052192;28;20419;-80
2023/07/29 03:31:03;;;;;;;5.15;2.38;;;18.50;99.90;;;;;;5052322;28;20037;-81
2023/07/29 03:33:29;;;;;;;4.38;2.50;;;18.40;99.90;;;;;;5052053;28;20059;-78
2023/07/29 03:35:54;;;;;;;4.65;1.73;;;18.40;99.90;;;;;;5050730;28;20051;-79
2023/07/29 03:38:20;;;;;;;4.70;2.00;;;18.40;99.90;;;;;;5052257;28;20025;-81
2023/07/29 03:40:46;;;;;;;5.38;2.40;;;18.30;99.90;;;;;;5051285;28;20033;-80
2023/07/29 03:43:13;;;;;;;6.10;2.17;;;18.30;99.90;;;;;;5050712;28;20025;-81
2023/07/29 03:45:39;;;;;;;2.55;1.63;;;18.40;99.90;;;;;;5050895;28;20033;-80
2023/07/29 03:48:05;;;;;;;3.47;2.03;;;18.40;99.90;;;;;;5051924;28;20070;-80
2023/07/29 03:50:34;;;;;;;5.85;2.10;;;18.40;99.90;;;;;;5050527;28;20025;-80
2023/07/29 03:52:59;;;;;;;3.67;1.58;;;18.40;99.90;;;;;;5050411;28;20120;-81
2023/07/29 03:55:25;;;;;;;6.10;1.88;;;18.50;99.90;;;;;;5050559;28;20123;-80
2023/07/29 03:57:51;;;;;;;3.28;1.70;;;18.50;99.90;;;;;;5050541;28;20049;-78
2023/07/29 04:00:16;;;;;;;5.38;1.98;;;18.60;99.90;;;;;;5051480;28;20394;-81
2023/07/29 04:02:42;;;;;;;2.38;1.52;;;18.60;99.90;;;;;;5050681;28;20029;-79
2023/07/29 04:05:08;;;;;;;6.05;1.60;;;18.70;99.90;;;;;;5051460;28;20461;-80
2023/07/29 04:07:35;;;;;;;3.00;1.63;;;18.70;99.90;;;;;;5050346;28;20067;-80
2023/07/29 04:10:01;;;;;;;4.53;2.05;;;18.80;99.90;;;;;;5049996;28;20024;-78
2023/07/29 04:12:27;;;;;;;2.95;1.52;;;18.90;99.90;;;;;;5051350;28;20045;-78
2023/07/29 04:14:53;;;;;;;5.07;1.67;;;19.00;99.90;;;;;;5051383;28;20202;-79
2023/07/29 04:17:18;;;;;;;2.83;1.58;;;19.00;99.90;;;;;;5051401;28;20021;-79
2023/07/29 04:19:44;;;;;;;4.53;2.15;;;19.10;99.90;;;;;;5050018;28;20043;-78
2023/07/29 04:22:10;;;;;;;7.03;1.70;;;19.30;99.90;;;;;;5051250;28;20059;-78
2023/07/29 04:24:36;;;;;;;1.88;1.20;;;19.40;99.90;;;;;;5051358;28;20477;-80
2023/07/29 04:27:02;;;;;;;2.05;1.40;;;19.60;99.90;;;;;;5050093;28;20021;-79
2023/07/29 04:29:27;;;;;;;3.05;1.45;;;19.90;99.90;;;;;;5051112;28;20048;-79
2023/07/29 04:31:53;;;;;;;3.50;1.60;;;20.10;99.90;;;;;;5051068;28;20024;-79
2023/07/29 04:34:19;;;;;;;2.85;1.95;;;20.40;99.90;;;;;;5051071;28;20178;-81
2023/07/29 04:36:48;;;;;;;4.22;2.40;;;20.50;99.90;;;;;;5049665;28;20033;-78
2023/07/29 04:39:14;;;;;;;3.17;1.52;;;20.70;99.90;;;;;;5051061;28;20032;-79
2023/07/29 04:41:40;;;;;;;3.30;1.85;;;20.80;99.90;;;;;;5049814;28;20461;-79
2023/07/29 04:44:05;;;;;;;4.40;2.10;;;20.90;99.90;;;;;;5050991;28;20025;-79
2023/07/29 04:46:31;;;;;;;2.33;1.42;;;21.00;99.90;;;;;;5051007;28;20099;-78
2023/07/29 04:48:57;;;;;;;3.65;1.52;;;21.00;99.90;;;;;;5051067;28;20043;-79
2023/07/29 04:51:23;;;;;;;3.55;1.63;;;21.10;99.90;;;;;;5049450;28;20025;-78
2023/07/29 04:53:49;;;;;;;5.35;1.98;;;21.20;99.90;;;;;;5048308;28;20083;-76
2023/07/29 04:56:14;;;;;;;3.50;1.35;;;21.20;99.90;;;;;;5050718;28;20029;-78
2023/07/29 04:58:40;;;;;;;2.88;1.75;;;21.30;99.90;;;;;;5050721;28;20025;-79
2023/07/29 05:01:06;;;;;;;5.53;1.70;;;21.30;99.90;;;;;;5049282;28;20035;-78
2023/07/29 05:03:32;;;;;;;4.15;1.40;;;21.40;99.90;;;;;;5049291;28;20029;-77
2023/07/29 05:05:59;;;;;;;6.43;1.40;;;21.50;99.90;;;;;;5049282;28;20044;-78
2023/07/29 05:08:27;;;;;;;3.28;1.70;;;21.60;99.90;;;;;;5050803;28;20024;-79
2023/07/29 05:10:54;;;;;;;2.75;1.50;;;21.70;99.90;;;;;;5049099;28;20485;-79
2023/07/29 05:13:20;;;;;;;2.90;1.55;;;21.70;99.90;;;;;;5048761;28;20056;-77
2023/07/29 05:15:47;;;;;;;5.22;1.80;;;21.90;99.90;;;;;;5049298;28;20469;-79
2023/07/29 05:18:13;;;;;;;2.53;1.70;;;22.00;99.90;;;;;;5050879;28;20024;-78
2023/07/29 05:20:58;;;;;;;5.40;1.65;;;22.10;99.90;;;;;;5050315;28;20405;-78
2023/07/29 05:23:24;;;;;;;8.48;1.85;;;22.20;99.90;;;;;;5050398;28;20021;-79
2023/07/29 05:25:50;;;;;;;3.83;2.28;;;22.30;99.90;;;;;;5050317;28;20074;-77
2023/07/29 05:28:15;;;;;;;4.30;2.38;;;22.40;99.90;;;;;;5049973;28;20105;-78
2023/07/29 05:30:44;;;;;;;4.78;1.77;;;22.60;99.90;;;;;;5048545;28;20028;-78
2023/07/29 05:33:09;;;;;;;4.35;1.65;;;22.80;99.90;;;;;;5048650;28;20040;-78
2023/07/29 05:35:35;;;;;;;3.75;1.75;;;23.00;99.90;;;;;;5050144;28;20033;-79
2023/07/29 05:38:01;;;;;;;2.55;1.67;;;23.20;99.90;;;;;;5049793;28;20033;-78
2023/07/29 05:40:26;;;;;;;3.17;1.95;;;23.30;99.90;;;;;;5049793;28;20443;-78
2023/07/29 05:42:52;;;;;;;3.97;1.98;;;23.50;99.90;;;;;;5048362;28;20493;-79
2023/07/29 05:45:17;;;;;;;2.13;1.58;;;23.70;99.90;;;;;;5049589;28;20055;-80
2023/07/29 05:47:43;;;;;;;5.80;1.38;;;23.80;99.90;;;;;;5050062;28;20503;-77
2023/07/29 05:50:09;;;;;;;6.65;2.28;;;24.10;99.90;;;;;;5049872;28;20035;-79
2023/07/29 05:52:34;;;;;;;3.40;2.00;;;24.40;99.90;;;;;;5048358;28;20037;-78
2023/07/29 05:55:00;;;;;;;4.32;2.10;;;24.50;99.90;;;;;;5048421;28;20090;-79
2023/07/29 05:57:28;;;;;;;3.65;1.70;;;24.90;99.90;;;;;;5049520;28;20044;-79
2023/07/29 05:59:53;;;;;;;4.80;1.77;;;25.50;98.80;;;;;;5049427;28;20029;-79
2023/07/29 06:02:19;;;;;;;3.28;1.80;;;26.20;95.60;;;;;;5049578;28;20048;-79
2023/07/29 06:04:44;;;;;;;4.38;2.45;;;26.90;92.90;;;;;;5049113;28;20432;-80
2023/07/29 06:07:10;;;;;;;3.17;1.60;;;27.50;90.20;;;;;;5049468;28;20060;-79
2023/07/29 06:09:36;;;;;;;4.68;1.98;;;28.00;85.00;;;;;;5048043;28;20029;-79
2023/07/29 06:12:01;;;;;;;2.85;1.65;;;28.40;81.60;;;;;;5049170;28;20052;-79
2023/07/29 06:14:28;;;;;;;5.45;2.00;;;29.20;76.00;;;;;;5049047;28;20115;-80
2023/07/29 06:16:54;;;;;;;5.32;2.22;;;30.00;71.40;;;;;;5047944;28;20029;-79
2023/07/29 06:19:20;;;;;;;3.78;1.80;;;30.70;66.00;;;;;;5048217;28;20029;-79
2023/07/29 06:21:46;;;;;;;3.13;1.90;;;31.60;62.50;;;;;;5047873;28;20029;-80
2023/07/29 06:24:12;;;;;;;2.50;1.92;;;32.60;58.90;;;;;;5047846;28;20047;-80
2023/07/29 06:26:38;;;;;;;2.58;1.55;;;33.50;56.00;;;;;;5049129;28;20058;-80
2023/07/29 06:29:04;;;;;;;12.57;2.13;;;34.20;51.10;;;;;;5047784;28;20025;-80
2023/07/29 06:31:29;;;;;;;2.70;1.80;;;34.50;49.80;;;;;;5049103;28;20087;-79
2023/07/29 06:33:55;;;;;;;2.35;1.60;;;34.70;49.40;;;;;;5048923;28;20033;-80
2023/07/29 06:36:21;;;;;;;3.50;1.90;;;35.00;47.20;;;;;;5047698;28;20058;-80
2023/07/29 06:38:47;;;;;;;4.35;1.95;;;34.70;47.50;;;;;;5048952;28;20075;-79
2023/07/29 06:41:13;;;;;;;3.63;1.58;;;34.10;48.50;;;;;;5049125;28;20048;-78
2023/07/29 06:43:38;;;;;;;3.58;1.98;;;33.50;51.00;;;;;;5049127;28;20882;-80
2023/07/29 06:46:04;;;;;;;3.67;1.73;;;33.20;51.40;;;;;;5048989;28;20810;-79
2023/07/29 06:48:29;;;;;;;4.53;2.20;;;32.70;52.50;;;;;;5049054;28;20028;-80
2023/07/29 06:51:00;;;;;;;3.17;2.20;;;32.50;53.50;;;;;;5047749;28;20031;-78
2023/07/29 06:53:26;;;;;;;4.10;2.05;;;32.50;53.10;;;;;;5049916;28;20025;-78
2023/07/29 06:55:51;;;;;;;2.90;2.10;;;32.40;53.40;;;;;;5048918;28;20071;-79
2023/07/29 06:58:17;;;;;;;3.92;2.38;;;32.30;54.10;;;;;;5048799;28;20036;-80
2023/07/29 07:00:43;;;;;;;4.13;2.10;;;32.40;53.90;;;;;;5048779;28;20025;-79
2023/07/29 07:03:08;;;;;;;6.03;2.10;;;32.80;52.80;;;;;;5048786;28;20037;-79
2023/07/29 07:05:34;;;;;;;2.95;1.80;;;33.60;51.30;;;;;;5048796;28;20057;-79
2023/07/29 07:08:00;;;;;;;6.30;3.03;;;34.10;49.60;;;;;;5048944;28;20459;-80
2023/07/29 07:10:25;;;;;;;2.97;1.90;;;34.80;48.40;;;;;;5048947;28;20478;-79
2023/07/29 07:12:51;;;;;;;4.93;2.10;;;35.10;47.00;;;;;;5048607;28;20090;-78
2023/07/29 07:15:17;;;;;;;9.10;2.28;;;35.60;46.30;;;;;;5048975;28;20029;-80
2023/07/29 07:17:42;;;;;;;2.85;2.35;;;35.60;45.10;;;;;;5052660;28;20036;-80
2023/07/29 07:20:08;;;;;;;2.53;1.80;;;35.70;44.70;;;;;;5051143;28;20060;-80
2023/07/29 07:22:34;;;;;;;3.67;1.95;;;35.90;45.10;;;;;;5050813;28;20405;-81
2023/07/29 07:24:59;;;;;;;2.60;2.05;;;36.00;45.00;;;;;;5050959;28;20409;-79
2023/07/29 07:27:25;;;;;;;4.35;2.15;;;36.10;45.00;;;;;;5052015;28;20028;-80
2023/07/29 07:29:51;;;;;;;2.05;1.60;;;36.10;43.60;;;;;;5052124;28;20032;-78
2023/07/29 07:32:16;;;;;;;2.42;1.70;;;36.10;41.60;;;;;;5050736;28;20111;-80
2023/07/29 07:34:42;;;;;;;2.35;1.77;;;35.90;42.20;;;;;;5051979;28;20029;-79
2023/07/29 07:37:07;;;;;;;3.15;2.38;;;36.00;41.80;;;;;;5052057;28;20039;-78
2023/07/29 07:39:33;;;;;;;5.88;1.83;;;35.80;42.00;;;;;;5052025;28;20128;-80
2023/07/29 07:41:59;;;;;;;6.45;2.08;;;35.40;43.00;;;;;;5051982;28;20107;-79
2023/07/29 07:44:26;;;;;;;3.42;1.88;;;34.90;44.00;;;;;;5050669;28;20033;-79
2023/07/29 07:46:52;;;;;;;5.20;1.88;;;34.40;45.10;;;;;;5051949;28;20029;-79
2023/07/29 07:49:18;;;;;;;2.95;1.50;;;34.50;43.80;;;;;;5050722;28;20393;-79
2023/07/29 07:51:44;;;;;;;8.82;6.45;;;34.70;43.60;;;;;;5051858;28;20360;-79
2023/07/29 07:54:09;;;;;;;4.45;2.80;;;35.00;42.80;;;;;;5051791;28;20604;-80
2023/07/29 07:56:35;;;;;;;7.32;1.75;;;35.20;42.10;;;;;;5051643;28;20033;-76
2023/07/29 07:59:01;;;;;;;5.35;1.80;;;35.40;41.70;;;;;;5050424;28;20025;-80
2023/07/29 08:01:26;;;;;;;3.03;1.63;;;35.30;42.30;;;;;;5051694;28;20444;-80
2023/07/29 08:03:52;;;;;;;1.75;1.48;;;35.50;41.70;;;;;;5051592;28;20036;-79
2023/07/29 08:06:17;;;;;;;2.10;1.77;;;35.70;41.30;;;;;;5052019;28;20103;-82
2023/07/29 08:08:43;;;;;;;26.67;19.42;;;35.80;40.70;;;;;;5050507;28;20090;-79
2023/07/29 08:11:09;;;;;;;5.53;3.33;;;35.70;40.80;;;;;;5051506;28;20058;-79
2023/07/29 08:13:34;;;;;;;4.28;1.90;;;35.70;40.50;;;;;;5050025;28;20491;-80
2023/07/29 08:16:00;;;;;;;4.88;1.80;;;36.00;40.70;;;;;;5051276;28;20036;-77
2023/07/29 08:18:26;;;;;;;7.25;1.83;;;36.00;40.80;;;;;;5051161;28;20104;-80
2023/07/29 08:21:03;;;;;;;4.05;1.80;;;36.10;40.70;;;;;;5051611;28;20063;-79
2023/07/29 08:23:31;;;;;;;8.02;1.63;;;36.20;40.50;;;;;;5049925;28;20108;-79
2023/07/29 08:26:01;;;;;;;4.75;2.03;;;36.70;40.50;;;;;;5051285;28;20053;-78
2023/07/29 08:28:37;;;;;;;3.67;1.80;;;37.00;40.40;;;;;;5051096;28;20025;-80
2023/07/29 08:31:04;;;;;;;3.42;2.00;;;37.10;39.50;;;;;;5051450;28;20059;-79
2023/07/29 08:33:30;;;;;;;9.75;1.67;;;36.80;40.60;;;;;;5050249;28;20013;-79
2023/07/29 08:35:56;;;;;;;3.38;1.75;;;37.10;41.20;;;;;;5050172;28;20044;-80
2023/07/29 08:38:22;;;;;;;8.82;1.70;;;37.20;40.60;;;;;;5051145;28;20055;-78
2023/07/29 08:40:59;;;;;;;8.25;1.63;;;37.60;39.10;;;;;;5050941;28;20052;-80
2023/07/29 08:43:32;;;;;;;4.95;1.40;;;37.70;38.60;;;;;;5050820;28;20025;-80
2023/07/29 08:45:58;;;;;;;8.05;1.83;;;37.70;38.00;;;;;;5049522;28;20021;-76
2023/07/29 08:48:36;;;;;;;3.13;1.75;;;37.80;38.60;;;;;;5050642;28;20080;-80
2023/07/29 08:51:03;;;;;;;3.22;2.00;;;37.70;37.50;;;;;;5050820;28;20028;-80
2023/07/29 08:53:29;;;;;;;1.95;1.63;;;37.50;37.70;;;;;;5050667;28;20630;-80
2023/07/29 08:55:55;;;;;;;2.10;1.75;;;37.30;38.40;;;;;;5050600;28;20048;-80
2023/07/29 08:58:22;;;;;;;3.58;1.63;;;37.30;38.90;;;;;;5050546;28;20036;-79
2023/07/29 09:00:49;;;;;;;2.60;1.45;;;37.30;39.30;;;;;;5049396;28;20489;-79
2023/07/29 09:03:15;;;;;;;4.07;1.55;;;37.30;39.20;;;;;;5050372;28;20477;-79
2023/07/29 09:05:40;;;;;;;2.20;1.65;;;37.30;38.90;;;;;;5050486;28;20090;-80
2023/07/29 09:08:07;;;;;;;2.95;1.92;;;37.00;39.00;;;;;;5050329;28;20036;-80
2023/07/29 09:10:37;;;;;;;2.25;1.42;;;37.20;40.20;;;;;;5050381;28;20067;-80
2023/07/29 09:13:03;;;;;;;2.97;1.50;;;37.40;38.40;;;;;;5050184;28;20063;-80
2023/07/29 09:15:31;;;;;;;2.42;1.45;;;37.40;38.60;;;;;;5050281;28;20025;-80
2023/07/29 09:17:57;;;;;;;5.53;1.52;;;37.60;39.00;;;;;;5050268;28;20025;-78
2023/07/29 09:20:27;;;;;;;3.60;1.60;;;37.80;38.40;;;;;;5050201;28;20390;-80
2023/07/29 09:22:59;;;;;;;2.13;1.20;;;38.10;37.60;;;;;;5050098;28;20490;-80
2023/07/29 09:25:26;;;;;;;1.95;1.20;;;37.90;37.40;;;;;;5050031;28;20031;-79
2023/07/29 09:27:52;;;;;;;17.77;1.63;;;38.10;37.00;;;;;;5050213;28;20044;-79
2023/07/29 09:30:18;;;;;;;1.88;1.08;;;37.50;37.70;;;;;;5048456;28;20057;-80
2023/07/29 09:32:44;;;;;;;4.57;1.20;;;37.10;37.80;;;;;;5048705;28;20028;-80
2023/07/29 09:35:13;;;;;;;4.82;1.90;;;36.80;38.10;;;;;;5049861;28;20075;-80
2023/07/29 09:37:39;;;;;;;1.38;0.90;;;36.80;38.20;;;;;;5048709;28;20099;-79
2023/07/29 09:40:06;;;;;;;1.70;1.17;;;36.80;38.20;;;;;;5049241;28;20655;-79
2023/07/29 09:42:32;;;;;;;2.42;1.00;;;37.00;37.60;;;;;;5048247;28;20037;-80
2023/07/29 09:44:58;;;;;;;1.60;1.00;;;37.30;37.40;;;;;;5048660;28;20039;-80
2023/07/29 09:47:25;;;;;;;9.35;1.10;;;37.40;35.90;;;;;;5049658;28;20104;-80
2023/07/29 09:49:51;;;;;;;2.00;1.02;;;37.20;37.00;;;;;;5049619;28;20049;-79
2023/07/29 09:52:18;;;;;;;2.95;0.90;;;37.20;36.90;;;;;;5049676;28;20025;-80
2023/07/29 09:54:45;;;;;;;6.53;1.45;;;37.50;36.90;;;;;;5049578;28;20055;-80
2023/07/29 09:57:15;;;;;;;4.40;0.93;;;37.30;35.30;;;;;;5049482;28;20032;-80
2023/07/29 09:59:41;;;;;;;1.63;0.90;;;37.00;35.00;;;;;;5048312;28;20075;-79
2023/07/29 10:02:16;;;;;;;1.30;1.10;;;36.40;36.60;;;;;;5049545;28;20029;-80
2023/07/29 10:04:42;;;;;;;1.15;0.85;;;36.10;37.50;;;;;;5048087;28;20126;-79
2023/07/29 10:07:12;;;;;;;5.00;1.48;;;36.20;37.60;;;;;;5049376;28;20025;-81
2023/07/29 10:09:41;;;;;;;4.15;1.33;;;35.80;37.70;;;;;;5049243;28;20120;-80
2023/07/29 10:12:07;;;;;;;1.70;0.95;;;35.30;37.40;;;;;;5048281;28;20532;-79
2023/07/29 10:14:33;;;;;;;2.55;0.90;;;34.80;39.10;;;;;;5048397;28;20651;-79
2023/07/29 10:17:00;;;;;;;4.53;1.30;;;34.60;39.50;;;;;;5048312;28;20512;-78
2023/07/29 10:19:27;;;;;;;0.90;0.63;;;34.60;40.10;;;;;;5049133;28;20503;-79
2023/07/29 10:21:55;;;;;;;2.17;0.88;;;34.50;40.80;;;;;;5049394;28;20025;-79
2023/07/29 10:24:29;;;;;;;2.25;0.95;;;34.20;40.50;;;;;;5049305;28;20505;-80
2023/07/29 10:26:58;;;;;;;1.05;0.70;;;33.70;41.50;;;;;;5047998;28;20025;-79
2023/07/29 10:29:28;;;;;;;2.67;1.00;;;33.30;42.20;;;;;;5049101;28;20029;-79
2023/07/29 10:31:57;;;;;;;2.75;0.80;;;33.10;42.80;;;;;;5049231;28;20029;-80
2023/07/29 10:34:24;;;;;;;2.28;0.80;;;32.90;43.40;;;;;;5049061;28;20509;-80
2023/07/29 10:36:50;;;;;;;1.35;0.90;;;32.80;43.30;;;;;;5049105;28;20025;-79
2023/07/29 10:39:16;;;;;;;2.08;1.00;;;32.70;43.00;;;;;;5049010;28;20508;-80
2023/07/29 10:42:02;;;;;;;2.05;1.40;;;32.80;43.50;;;;;;5047849;28;20033;-79
2023/07/29 10:44:40;;;;;;;;;;;32.70;43.50;;;;;;5048077;28;20033;-79
2023/07/29 10:47:12;;;;;;;1.77;0.80;;;32.60;44.10;;;;;;5049051;28;20308;-78
2023/07/29 10:49:41;;;;;;;2.17;1.10;;;32.50;45.00;;;;;;5049558;28;20036;-80
2023/07/29 10:52:06;;;;;;;2.08;0.80;;;32.40;44.00;;;;;;5052920;28;20565;-78
2023/07/29 10:54:42;;;;;;;2.05;0.70;;;32.50;44.40;;;;;;5051223;28;20037;-78
2023/07/29 10:57:16;;;;;;;3.67;0.90;;;32.40;44.20;;;;;;5052976;28;20025;-78
2023/07/29 10:59:57;;;;;;;2.40;0.75;;;32.40;43.30;;;;;;5051487;28;20070;-80
2023/07/29 11:02:32;;;;;;;1.63;0.77;;;32.20;43.60;;;;;;5052871;28;20028;-79
2023/07/29 11:04:59;;;;;;;4.47;0.80;;;32.00;44.60;;;;;;5051415;28;20136;-80
2023/07/29 11:07:26;;;;;;;1.60;0.80;;;31.80;45.50;;;;;;5052558;28;20021;-80
2023/07/29 11:10:01;;;;;;;1.23;0.88;;;31.70;45.10;;;;;;5052578;28;20033;-79
2023/07/29 11:12:45;;;;;;;1.60;0.90;;;31.50;45.40;;;;;;5052332;28;20045;-79
2023/07/29 11:15:12;;;;;;;2.25;0.77;;;31.50;46.60;;;;;;5052439;28;20206;-78
2023/07/29 11:17:52;;;;;;;1.10;0.82;;;31.60;45.70;;;;;;5053828;28;20106;-79
2023/07/29 11:20:24;;;;;;;3.05;0.90;;;31.70;44.00;;;;;;5046511;28;20033;-79
2023/07/29 11:22:50;;;;;;;1.73;0.88;;;31.80;45.00;;;;;;5052312;28;20059;-78
2023/07/29 11:25:17;;;;;;;1.23;0.70;;;31.90;44.50;;;;;;5052343;28;20068;-79
2023/07/29 11:27:43;;;;;;;1.55;0.98;;;31.80;44.40;;;;;;5051113;28;20029;-79
2023/07/29 11:30:14;;;;;;;5.47;0.98;;;31.60;45.20;;;;;;5050982;28;20115;-79
2023/07/29 11:32:41;;;;;;;1.35;0.80;;;31.60;44.90;;;;;;5052245;28;20509;-79
2023/07/29 11:35:12;;;;;;;1.23;0.77;;;31.70;44.30;;;;;;5050856;28;20501;-80
2023/07/29 11:37:38;;;;;;;2.42;0.85;;;31.70;45.10;;;;;;5052504;28;20029;-80
2023/07/29 11:40:06;;;;;;;1.77;0.90;;;31.60;44.50;;;;;;5052157;28;20031;-80
2023/07/29 11:42:35;;;;;;;1.80;0.80;;;31.60;43.80;;;;;;5052099;28;20056;-80
2023/07/29 11:45:03;;;;;;;4.47;0.77;;;31.40;43.40;;;;;;5052150;28;20521;-79
2023/07/29 11:47:28;;;;;;;1.08;0.68;;;31.30;44.40;;;;;;5052041;28;20036;-79
2023/07/29 11:49:57;;;;;;;1.13;0.73;;;31.30;44.40;;;;;;5051962;28;20488;-80
2023/07/29 11:52:24;;;;;;;3.45;0.63;;;31.40;44.80;;;;;;5051909;28;20063;-79
2023/07/29 11:54:50;;;;;;;0.90;0.65;;;31.40;44.10;;;;;;5051743;28;20108;-78
2023/07/29 11:57:18;;;;;;;3.78;0.68;;;31.30;44.40;;;;;;5051830;28;20125;-79
2023/07/29 11:59:44;;;;;;;1.05;0.60;;;31.30;44.30;;;;;;5050463;28;20382;-80
2023/07/29 12:02:14;;;;;;;1.00;0.88;;;31.30;44.80;;;;;;5049496;28;20505;-79
2023/07/29 12:04:41;;;;;;;1.17;0.75;;;31.30;45.00;;;;;;5051548;28;20562;-79
2023/07/29 12:07:07;;;;;;;2.63;0.80;;;31.20;44.50;;;;;;5050263;28;20025;-79
2023/07/29 12:09:35;;;;;;;1.08;0.75;;;31.10;44.50;;;;;;5051642;28;20029;-78
2023/07/29 12:12:05;;;;;;;1.25;0.70;;;31.10;45.10;;;;;;5051403;28;20053;-78
2023/07/29 12:14:31;;;;;;;1.08;0.63;;;30.90;45.30;;;;;;5051480;28;20520;-79
2023/07/29 12:17:03;;;;;;;2.00;0.60;;;30.90;45.70;;;;;;5050197;28;20501;-79
2023/07/29 12:19:37;;;;;;;2.40;0.98;;;30.80;46.00;;;;;;5051499;28;20033;-79
2023/07/29 12:22:04;;;;;;;1.50;0.88;;;30.70;46.70;;;;;;5049991;28;20413;-79
2023/07/29 12:24:31;;;;;;;1.45;0.80;;;30.60;46.20;;;;;;5051273;28;20488;-79
2023/07/29 12:26:57;;;;;;;1.00;0.70;;;30.70;47.30;;;;;;5050048;28;20155;-79
2023/07/29 12:29:23;;;;;;;1.05;0.70;;;30.70;46.80;;;;;;5049716;28;20119;-79
2023/07/29 12:31:57;;;;;;;2.65;0.63;;;30.90;46.10;;;;;;5049812;28;20028;-78
2023/07/29 12:34:24;;;;;;;2.08;0.80;;;31.10;45.90;;;;;;5049929;28;20060;-79
2023/07/29 12:36:51;;;;;;;1.25;0.73;;;31.30;44.90;;;;;;5051095;28;20013;-79
2023/07/29 12:39:26;;;;;;;1.67;0.85;;;31.40;45.10;;;;;;5049610;28;20067;-80
2023/07/29 12:41:54;;;;;;;3.95;1.13;;;31.50;45.20;;;;;;5049380;28;20098;-79
2023/07/29 12:44:20;;;;;;;0.98;0.63;;;31.50;45.30;;;;;;5050854;28;20040;-79
2023/07/29 12:46:46;;;;;;;1.60;0.65;;;31.50;45.00;;;;;;5050948;28;20021;-79
2023/07/29 12:49:11;;;;;;;1.58;0.80;;;31.40;45.10;;;;;;5050940;28;20031;-80